sensor_id;sensor_type;location;lat;lon;timestamp;pressure;altitude;pressure_sealevel;temperature;humidity
23643;BME280;11998;55.788;37.572;2023-06-10T00:00:40;98948.38;;;84.54;9.94
23643;BME280;11998;55.788;37.572;2023-06-10T00:01:44;98961.38;;;85.38;9.75
23643;BME280;11998;55.788;37.572;2023-06-10T00:02:47;98963.03;;;85.90;9.84
23643;BME280;11998;55.788;37.572;2023-06-10T00:03:47;98973.38;;;85.83;9.88
23643;BME280;11998;55.788;37.572;2023-06-10T00:04:48;98974.41;;;86.89;9.79
23643;BME280;11998;55.788;37.572;2023-06-10T00:05:48;98996.38;;;88.36;9.70
23643;BME280;11998;55.788;37.572;2023-06-10T00:06:49;98993.16;;;87.24;10.03
23643;BME280;11998;55.788;37.572;2023-06-10T00:07:50;98990.63;;;87.28;9.83
23643;BME280;11998;55.788;37.572;2023-06-10T00:08:51;98979.38;;;86.28;9.73
23643;BME280;11998;55.788;37.572;2023-06-10T00:09:51;98957.56;;;84.26;9.86
23643;BME280;11998;55.788;37.572;2023-06-10T00:10:52;98975.06;;;86.95;9.77
23643;BME280;11998;55.788;37.572;2023-06-10T00:11:53;98966.81;;;86.03;9.77
23643;BME280;11998;55.788;37.572;2023-06-10T00:12:53;98977.78;;;87.33;9.71
23643;BME280;11998;55.788;37.572;2023-06-10T00:13:53;98966.13;;;85.65;10.03
23643;BME280;11998;55.788;37.572;2023-06-10T00:14:54;98974.59;;;86.25;9.77
23643;BME280;11998;55.788;37.572;2023-06-10T00:15:55;98978.00;;;87.35;9.87
23643;BME280;11998;55.788;37.572;2023-06-10T00:16:55;98983.41;;;87.37;9.74
23643;BME280;11998;55.788;37.572;2023-06-10T00:17:57;98949.44;;;84.02;10.09
23643;BME280;11998;55.788;37.572;2023-06-10T00:19:01;98968.50;;;85.85;9.75
23643;BME280;11998;55.788;37.572;2023-06-10T00:20:03;98975.53;;;86.60;9.80
23643;BME280;11998;55.788;37.572;2023-06-10T00:21:09;98985.72;;;87.65;9.79
23643;BME280;11998;55.788;37.572;2023-06-10T00:22:10;98984.44;;;87.94;9.54
23643;BME280;11998;55.788;37.572;2023-06-10T00:23:12;98986.34;;;88.26;9.74
23643;BME280;11998;55.788;37.572;2023-06-10T00:24:13;98991.56;;;87.91;9.68
23643;BME280;11998;55.788;37.572;2023-06-10T00:25:14;99000.88;;;87.53;9.64
23643;BME280;11998;55.788;37.572;2023-06-10T00:26:14;98991.78;;;87.93;9.71
23643;BME280;11998;55.788;37.572;2023-06-10T00:27:15;98982.88;;;86.72;9.96
23643;BME280;11998;55.788;37.572;2023-06-10T00:28:16;98987.50;;;87.34;9.94
23643;BME280;11998;55.788;37.572;2023-06-10T00:29:16;98985.53;;;88.04;9.52
23643;BME280;11998;55.788;37.572;2023-06-10T00:30:17;98988.78;;;88.92;9.63
23643;BME280;11998;55.788;37.572;2023-06-10T00:31:17;99000.28;;;88.31;9.58
23643;BME280;11998;55.788;37.572;2023-06-10T00:32:18;98995.09;;;88.52;9.59
23643;BME280;11998;55.788;37.572;2023-06-10T00:33:19;98999.78;;;88.69;9.63
23643;BME280;11998;55.788;37.572;2023-06-10T00:34:19;99004.25;;;87.84;9.66
23643;BME280;11998;55.788;37.572;2023-06-10T00:35:21;99001.41;;;87.99;9.68
23643;BME280;11998;55.788;37.572;2023-06-10T00:36:21;99004.03;;;88.81;9.81
23643;BME280;11998;55.788;37.572;2023-06-10T00:37:22;98997.16;;;87.95;9.82
23643;BME280;11998;55.788;37.572;2023-06-10T00:38:22;99005.25;;;89.14;9.47
23643;BME280;11998;55.788;37.572;2023-06-10T00:39:23;99008.09;;;88.34;9.51
23643;BME280;11998;55.788;37.572;2023-06-10T00:40:24;99007.16;;;88.96;9.76
23643;BME280;11998;55.788;37.572;2023-06-10T00:41:25;99013.56;;;89.08;9.69
23643;BME280;11998;55.788;37.572;2023-06-10T00:42:28;99009.50;;;88.90;9.80
23643;BME280;11998;55.788;37.572;2023-06-10T00:43:29;99022.72;;;89.02;9.56
23643;BME280;11998;55.788;37.572;2023-06-10T00:44:29;99029.75;;;89.20;9.65
23643;BME280;11998;55.788;37.572;2023-06-10T00:45:31;99012.59;;;87.51;9.77
23643;BME280;11998;55.788;37.572;2023-06-10T00:46:32;99023.25;;;88.93;9.57
23643;BME280;11998;55.788;37.572;2023-06-10T00:47:34;99032.25;;;90.03;9.86
23643;BME280;11998;55.788;37.572;2023-06-10T00:48:35;99025.78;;;89.61;9.64
23643;BME280;11998;55.788;37.572;2023-06-10T00:49:36;99031.84;;;90.07;9.46
23643;BME280;11998;55.788;37.572;2023-06-10T00:50:37;99021.97;;;88.52;9.60
23643;BME280;11998;55.788;37.572;2023-06-10T00:51:39;99020.25;;;89.29;9.69
23643;BME280;11998;55.788;37.572;2023-06-10T00:52:40;99022.38;;;88.56;9.69
23643;BME280;11998;55.788;37.572;2023-06-10T00:53:43;99027.16;;;89.16;9.69
23643;BME280;11998;55.788;37.572;2023-06-10T00:54:45;99035.84;;;90.40;9.69
23643;BME280;11998;55.788;37.572;2023-06-10T00:55:46;99029.31;;;89.52;9.65
23643;BME280;11998;55.788;37.572;2023-06-10T00:56:47;99039.38;;;89.93;9.61
23643;BME280;11998;55.788;37.572;2023-06-10T00:57:48;99027.16;;;89.16;9.54
23643;BME280;11998;55.788;37.572;2023-06-10T00:58:50;99030.72;;;88.79;9.51
23643;BME280;11998;55.788;37.572;2023-06-10T00:59:51;99028.78;;;87.77;9.77
23643;BME280;11998;55.788;37.572;2023-06-10T01:00:52;99026.66;;;88.97;9.78
23643;BME280;11998;55.788;37.572;2023-06-10T01:01:53;99029.22;;;89.21;9.49
23643;BME280;11998;55.788;37.572;2023-06-10T01:02:54;99046.22;;;90.09;9.40
23643;BME280;11998;55.788;37.572;2023-06-10T01:03:55;99043.38;;;89.88;9.71
23643;BME280;11998;55.788;37.572;2023-06-10T01:04:59;99031.69;;;88.74;9.73
23643;BME280;11998;55.788;37.572;2023-06-10T01:06:24;99043.69;;;89.17;9.79
23643;BME280;11998;55.788;37.572;2023-06-10T01:08:07;99036.19;;;89.91;9.76
23643;BME280;11998;55.788;37.572;2023-06-10T01:09:19;99026.16;;;88.28;9.72
23643;BME280;11998;55.788;37.572;2023-06-10T01:10:30;98995.03;;;84.84;9.98
23643;BME280;11998;55.788;37.572;2023-06-10T01:11:49;99018.69;;;87.33;9.62
23643;BME280;11998;55.788;37.572;2023-06-10T01:12:59;99010.81;;;86.82;9.66
23643;BME280;11998;55.788;37.572;2023-06-10T01:14:03;99015.28;;;86.62;9.83
23643;BME280;11998;55.788;37.572;2023-06-10T01:15:05;99019.63;;;86.16;9.71
23643;BME280;11998;55.788;37.572;2023-06-10T01:16:06;99018.63;;;87.12;9.85
23643;BME280;11998;55.788;37.572;2023-06-10T01:17:08;99023.97;;;87.87;9.89
23643;BME280;11998;55.788;37.572;2023-06-10T01:18:10;99035.34;;;87.96;9.80
23643;BME280;11998;55.788;37.572;2023-06-10T01:19:15;99037.06;;;87.84;9.67
23643;BME280;11998;55.788;37.572;2023-06-10T01:20:17;99040.94;;;88.34;9.72
23643;BME280;11998;55.788;37.572;2023-06-10T01:21:20;99045.91;;;88.60;9.81
23643;BME280;11998;55.788;37.572;2023-06-10T01:22:25;99047.47;;;89.54;9.71
23643;BME280;11998;55.788;37.572;2023-06-10T01:23:28;99049.44;;;89.08;9.73
23643;BME280;11998;55.788;37.572;2023-06-10T01:24:29;99052.69;;;88.19;9.60
23643;BME280;11998;55.788;37.572;2023-06-10T01:25:33;99058.13;;;88.98;9.90
23643;BME280;11998;55.788;37.572;2023-06-10T01:26:36;99040.19;;;87.05;9.55
23643;BME280;11998;55.788;37.572;2023-06-10T01:27:38;99044.06;;;86.99;9.85
23643;BME280;11998;55.788;37.572;2023-06-10T01:29:06;99040.81;;;86.71;9.83
23643;BME280;11998;55.788;37.572;2023-06-10T01:30:15;99042.00;;;86.94;9.65
23643;BME280;11998;55.788;37.572;2023-06-10T01:31:48;99047.63;;;88.06;9.74
23643;BME280;11998;55.788;37.572;2023-06-10T01:32:48;99051.81;;;88.81;9.56
23643;BME280;11998;55.788;37.572;2023-06-10T01:33:52;99059.91;;;88.23;9.68
23643;BME280;11998;55.788;37.572;2023-06-10T01:34:54;99062.09;;;89.73;9.35
23643;BME280;11998;55.788;37.572;2023-06-10T01:35:59;99055.44;;;88.09;9.76
23643;BME280;11998;55.788;37.572;2023-06-10T01:37:02;99067.66;;;88.89;9.56
23643;BME280;11998;55.788;37.572;2023-06-10T01:38:04;99070.59;;;89.17;9.46
23643;BME280;11998;55.788;37.572;2023-06-10T01:39:08;99067.56;;;87.77;9.88
23643;BME280;11998;55.788;37.572;2023-06-10T01:40:08;99055.84;;;87.18;9.81
23643;BME280;11998;55.788;37.572;2023-06-10T01:41:12;99060.72;;;88.65;9.76
23643;BME280;11998;55.788;37.572;2023-06-10T01:42:13;99059.97;;;88.73;9.68
23643;BME280;11998;55.788;37.572;2023-06-10T01:43:15;99039.53;;;84.59;10.00
23643;BME280;11998;55.788;37.572;2023-06-10T01:44:22;99046.91;;;86.01;9.87
23643;BME280;11998;55.788;37.572;2023-06-10T01:45:23;99048.03;;;86.49;9.64
23643;BME280;11998;55.788;37.572;2023-06-10T01:46:24;99055.53;;;86.05;9.81
23643;BME280;11998;55.788;37.572;2023-06-10T01:47:24;99027.47;;;83.39;9.90
23643;BME280;11998;55.788;37.572;2023-06-10T01:48:25;99022.94;;;83.74;9.96
23643;BME280;11998;55.788;37.572;2023-06-10T01:49:25;99026.31;;;83.95;9.97
23643;BME280;11998;55.788;37.572;2023-06-10T01:50:27;99033.06;;;85.53;9.78
23643;BME280;11998;55.788;37.572;2023-06-10T01:51:27;99054.13;;;86.96;9.62
23643;BME280;11998;55.788;37.572;2023-06-10T01:52:28;99045.66;;;86.29;9.73
23643;BME280;11998;55.788;37.572;2023-06-10T01:53:28;99052.94;;;86.47;9.82
23643;BME280;11998;55.788;37.572;2023-06-10T01:54:29;99058.91;;;85.96;9.89
23643;BME280;11998;55.788;37.572;2023-06-10T01:55:29;99066.31;;;87.25;9.52
23643;BME280;11998;55.788;37.572;2023-06-10T01:56:30;99056.56;;;86.07;9.93
23643;BME280;11998;55.788;37.572;2023-06-10T01:57:30;99067.31;;;86.75;9.82
23643;BME280;11998;55.788;37.572;2023-06-10T01:58:31;99070.88;;;86.86;9.74
23643;BME280;11998;55.788;37.572;2023-06-10T01:59:32;99060.19;;;85.81;9.76
23643;BME280;11998;55.788;37.572;2023-06-10T02:00:32;99041.13;;;82.34;10.24
23643;BME280;11998;55.788;37.572;2023-06-10T02:01:33;99048.28;;;84.76;9.95
23643;BME280;11998;55.788;37.572;2023-06-10T02:02:35;99053.00;;;83.36;9.96
23643;BME280;11998;55.788;37.572;2023-06-10T02:03:36;99060.16;;;86.19;9.72
23643;BME280;11998;55.788;37.572;2023-06-10T02:04:36;99081.06;;;87.91;9.63
23643;BME280;11998;55.788;37.572;2023-06-10T02:05:37;99087.34;;;87.53;9.64
23643;BME280;11998;55.788;37.572;2023-06-10T02:06:38;99093.53;;;87.69;9.81
23643;BME280;11998;55.788;37.572;2023-06-10T02:07:38;99096.78;;;87.44;9.57
23643;BME280;11998;55.788;37.572;2023-06-10T02:08:39;99086.59;;;87.13;9.66
23643;BME280;11998;55.788;37.572;2023-06-10T02:09:39;99064.91;;;83.31;10.19
23643;BME280;11998;55.788;37.572;2023-06-10T02:10:40;99072.63;;;86.18;9.69
23643;BME280;11998;55.788;37.572;2023-06-10T02:11:41;99087.13;;;87.65;9.73
23643;BME280;11998;55.788;37.572;2023-06-10T02:12:41;99073.34;;;86.69;9.65
23643;BME280;11998;55.788;37.572;2023-06-10T02:13:42;99090.31;;;87.67;9.82
23643;BME280;11998;55.788;37.572;2023-06-10T02:14:42;99098.13;;;88.66;9.46
23643;BME280;11998;55.788;37.572;2023-06-10T02:15:43;99093.25;;;87.80;9.65
23643;BME280;11998;55.788;37.572;2023-06-10T02:16:43;99101.41;;;88.55;9.66
23643;BME280;11998;55.788;37.572;2023-06-10T02:17:45;99094.94;;;87.02;9.78
23643;BME280;11998;55.788;37.572;2023-06-10T02:18:46;99086.69;;;86.94;9.69
23643;BME280;11998;55.788;37.572;2023-06-10T02:19:47;99094.44;;;86.71;9.93
23643;BME280;11998;55.788;37.572;2023-06-10T02:20:52;99087.91;;;86.08;9.77
23643;BME280;11998;55.788;37.572;2023-06-10T02:21:53;99094.81;;;86.94;9.79
23643;BME280;11998;55.788;37.572;2023-06-10T02:22:53;99093.63;;;87.76;9.64
23643;BME280;11998;55.788;37.572;2023-06-10T02:23:54;99098.38;;;87.06;9.84
23643;BME280;11998;55.788;37.572;2023-06-10T02:24:55;99089.38;;;85.21;9.87
23643;BME280;11998;55.788;37.572;2023-06-10T02:25:55;99075.78;;;85.07;9.98
23643;BME280;11998;55.788;37.572;2023-06-10T02:26:56;99073.69;;;85.82;9.76
23643;BME280;11998;55.788;37.572;2023-06-10T02:27:56;99098.84;;;87.49;9.63
23643;BME280;11998;55.788;37.572;2023-06-10T02:28:57;99099.94;;;86.80;9.67
23643;BME280;11998;55.788;37.572;2023-06-10T02:29:57;99100.47;;;87.11;9.63
23643;BME280;11998;55.788;37.572;2023-06-10T02:30:58;99074.13;;;84.81;9.89
23643;BME280;11998;55.788;37.572;2023-06-10T02:31:59;99086.22;;;85.38;9.89
23643;BME280;11998;55.788;37.572;2023-06-10T02:33:00;99064.44;;;83.10;10.11
23643;BME280;11998;55.788;37.572;2023-06-10T02:34:01;99060.84;;;83.92;9.97
23643;BME280;11998;55.788;37.572;2023-06-10T02:35:03;99077.31;;;84.64;9.85
23643;BME280;11998;55.788;37.572;2023-06-10T02:36:04;99082.53;;;86.26;9.66
23643;BME280;11998;55.788;37.572;2023-06-10T02:37:05;99071.63;;;84.31;9.79
23643;BME280;11998;55.788;37.572;2023-06-10T02:38:06;99077.44;;;85.89;9.70
23643;BME280;11998;55.788;37.572;2023-06-10T02:39:06;99080.41;;;83.65;9.88
23643;BME280;11998;55.788;37.572;2023-06-10T02:40:07;99084.78;;;84.41;9.85
23643;BME280;11998;55.788;37.572;2023-06-10T02:41:09;99068.53;;;82.23;10.01
23643;BME280;11998;55.788;37.572;2023-06-10T02:42:09;99066.13;;;82.33;10.03
23643;BME280;11998;55.788;37.572;2023-06-10T02:43:10;99076.38;;;84.45;9.73
23643;BME280;11998;55.788;37.572;2023-06-10T02:44:11;99081.47;;;85.29;9.86
23643;BME280;11998;55.788;37.572;2023-06-10T02:45:11;99110.97;;;87.65;9.54
23643;BME280;11998;55.788;37.572;2023-06-10T02:46:12;99116.03;;;87.30;9.62
23643;BME280;11998;55.788;37.572;2023-06-10T02:47:13;99111.28;;;86.36;9.92
23643;BME280;11998;55.788;37.572;2023-06-10T02:48:13;99127.25;;;87.64;9.50
23643;BME280;11998;55.788;37.572;2023-06-10T02:49:14;99113.03;;;85.32;9.80
23643;BME280;11998;55.788;37.572;2023-06-10T02:50:14;99113.03;;;85.08;9.96
23643;BME280;11998;55.788;37.572;2023-06-10T02:51:15;99095.56;;;85.23;9.87
23643;BME280;11998;55.788;37.572;2023-06-10T02:52:16;99096.13;;;84.37;9.87
23643;BME280;11998;55.788;37.572;2023-06-10T02:53:16;99100.06;;;86.42;9.62
23643;BME280;11998;55.788;37.572;2023-06-10T02:54:17;99130.47;;;88.76;9.36
23643;BME280;11998;55.788;37.572;2023-06-10T02:55:17;99142.53;;;89.48;9.72
23643;BME280;11998;55.788;37.572;2023-06-10T02:56:18;99144.53;;;89.53;9.78
23643;BME280;11998;55.788;37.572;2023-06-10T02:57:19;99146.00;;;89.31;9.73
23643;BME280;11998;55.788;37.572;2023-06-10T02:58:19;99147.13;;;88.92;9.66
23643;BME280;11998;55.788;37.572;2023-06-10T02:59:21;99146.41;;;88.02;9.76
23643;BME280;11998;55.788;37.572;2023-06-10T03:00:22;99116.47;;;84.63;9.89
23643;BME280;11998;55.788;37.572;2023-06-10T03:01:22;99097.63;;;82.75;10.03
23643;BME280;11998;55.788;37.572;2023-06-10T03:02:23;99102.19;;;83.79;9.91
23643;BME280;11998;55.788;37.572;2023-06-10T03:03:28;99104.25;;;86.02;9.83
23643;BME280;11998;55.788;37.572;2023-06-10T03:04:30;99124.63;;;87.60;9.71
23643;BME280;11998;55.788;37.572;2023-06-10T03:05:31;99102.88;;;83.96;9.99
23643;BME280;11998;55.788;37.572;2023-06-10T03:06:32;99106.84;;;85.06;9.75
23643;BME280;11998;55.788;37.572;2023-06-10T03:07:36;99109.56;;;85.71;9.72
23643;BME280;11998;55.788;37.572;2023-06-10T03:08:37;99102.94;;;83.85;10.07
23643;BME280;11998;55.788;37.572;2023-06-10T03:09:38;99116.81;;;87.57;9.67
23643;BME280;11998;55.788;37.572;2023-06-10T03:10:38;99121.34;;;86.65;9.74
23643;BME280;11998;55.788;37.572;2023-06-10T03:11:39;99115.19;;;85.94;9.93
23643;BME280;11998;55.788;37.572;2023-06-10T03:12:39;99104.72;;;84.76;10.03
23643;BME280;11998;55.788;37.572;2023-06-10T03:13:40;99118.84;;;86.83;9.81
23643;BME280;11998;55.788;37.572;2023-06-10T03:14:41;99117.50;;;86.97;9.45
23643;BME280;11998;55.788;37.572;2023-06-10T03:15:41;99126.09;;;86.87;9.58
23643;BME280;11998;55.788;37.572;2023-06-10T03:16:42;99121.25;;;87.77;9.70
23643;BME280;11998;55.788;37.572;2023-06-10T03:17:42;99137.38;;;87.47;9.67
23643;BME280;11998;55.788;37.572;2023-06-10T03:18:43;99143.50;;;88.23;9.60
23643;BME280;11998;55.788;37.572;2023-06-10T03:19:43;99118.16;;;85.31;9.99
23643;BME280;11998;55.788;37.572;2023-06-10T03:20:44;99136.53;;;88.07;9.50
23643;BME280;11998;55.788;37.572;2023-06-10T03:21:45;99119.88;;;85.21;9.87
23643;BME280;11998;55.788;37.572;2023-06-10T03:22:46;99145.31;;;88.89;9.60
23643;BME280;11998;55.788;37.572;2023-06-10T03:23:46;99142.47;;;88.42;9.78
23643;BME280;11998;55.788;37.572;2023-06-10T03:24:47;99145.41;;;88.34;9.75
23643;BME280;11998;55.788;37.572;2023-06-10T03:25:50;99154.41;;;90.20;9.49
23643;BME280;11998;55.788;37.572;2023-06-10T03:26:51;99159.66;;;89.84;9.68
23643;BME280;11998;55.788;37.572;2023-06-10T03:27:51;99152.25;;;87.61;9.75
23643;BME280;11998;55.788;37.572;2023-06-10T03:28:51;99146.91;;;88.90;9.74
23643;BME280;11998;55.788;37.572;2023-06-10T03:29:52;99141.72;;;87.46;9.92
23643;BME280;11998;55.788;37.572;2023-06-10T03:30:52;99139.56;;;87.94;9.57
23643;BME280;11998;55.788;37.572;2023-06-10T03:31:53;99130.69;;;87.02;9.76
23643;BME280;11998;55.788;37.572;2023-06-10T03:32:53;99137.34;;;87.74;9.68
23643;BME280;11998;55.788;37.572;2023-06-10T03:33:54;99145.03;;;89.72;9.36
23643;BME280;11998;55.788;37.572;2023-06-10T03:34:55;99140.06;;;89.39;9.61
23643;BME280;11998;55.788;37.572;2023-06-10T03:35:57;99141.47;;;87.58;9.66
23643;BME280;11998;55.788;37.572;2023-06-10T03:36:58;99124.97;;;87.04;9.84
23643;BME280;11998;55.788;37.572;2023-06-10T03:37:58;99142.25;;;87.85;9.71
23643;BME280;11998;55.788;37.572;2023-06-10T03:38:59;99129.22;;;87.95;9.75
23643;BME280;11998;55.788;37.572;2023-06-10T03:39:59;99140.66;;;89.73;9.52
23643;BME280;11998;55.788;37.572;2023-06-10T03:41:00;99158.41;;;90.38;9.43
23643;BME280;11998;55.788;37.572;2023-06-10T03:42:00;99165.56;;;91.34;9.41
23643;BME280;11998;55.788;37.572;2023-06-10T03:43:01;99173.19;;;91.20;9.39
23643;BME280;11998;55.788;37.572;2023-06-10T03:44:02;99167.97;;;90.37;9.74
23643;BME280;11998;55.788;37.572;2023-06-10T03:45:03;99178.13;;;91.88;9.67
23643;BME280;11998;55.788;37.572;2023-06-10T03:46:04;99188.47;;;93.02;9.36
23643;BME280;11998;55.788;37.572;2023-06-10T03:47:05;99174.28;;;91.55;9.68
23643;BME280;11998;55.788;37.572;2023-06-10T03:48:06;99188.31;;;93.18;9.52
23643;BME280;11998;55.788;37.572;2023-06-10T03:49:08;99191.03;;;93.75;9.38
23643;BME280;11998;55.788;37.572;2023-06-10T03:50:10;99170.63;;;91.72;9.71
23643;BME280;11998;55.788;37.572;2023-06-10T03:51:11;99167.19;;;91.20;9.40
23643;BME280;11998;55.788;37.572;2023-06-10T03:52:11;99154.78;;;90.24;9.67
23643;BME280;11998;55.788;37.572;2023-06-10T03:53:12;99152.44;;;90.46;9.41
23643;BME280;11998;55.788;37.572;2023-06-10T03:54:13;99151.44;;;90.81;9.71
23643;BME280;11998;55.788;37.572;2023-06-10T03:55:13;99147.97;;;90.16;9.42
23643;BME280;11998;55.788;37.572;2023-06-10T03:56:14;99147.56;;;88.96;9.81
23643;BME280;11998;55.788;37.572;2023-06-10T03:57:14;99137.56;;;89.50;9.62
23643;BME280;11998;55.788;37.572;2023-06-10T03:58:15;99143.13;;;89.90;9.46
23643;BME280;11998;55.788;37.572;2023-06-10T03:59:16;99111.94;;;85.54;9.74
23643;BME280;11998;55.788;37.572;2023-06-10T04:00:16;99126.47;;;87.37;9.75
23643;BME280;11998;55.788;37.572;2023-06-10T04:01:18;99125.47;;;88.99;9.43
23643;BME280;11998;55.788;37.572;2023-06-10T04:02:21;99134.75;;;89.16;9.46
23643;BME280;11998;55.788;37.572;2023-06-10T04:03:21;99141.59;;;90.12;9.33
23643;BME280;11998;55.788;37.572;2023-06-10T04:04:23;99147.38;;;90.10;9.47
23643;BME280;11998;55.788;37.572;2023-06-10T04:05:23;99164.28;;;91.53;9.39
23643;BME280;11998;55.788;37.572;2023-06-10T04:06:24;99161.13;;;90.13;9.66
23643;BME280;11998;55.788;37.572;2023-06-10T04:07:25;99131.75;;;86.08;9.80
23643;BME280;11998;55.788;37.572;2023-06-10T04:08:26;99130.25;;;87.24;9.72
23643;BME280;11998;55.788;37.572;2023-06-10T04:09:26;99150.31;;;88.94;9.36
23643;BME280;11998;55.788;37.572;2023-06-10T04:10:27;99144.53;;;89.45;9.40
23643;BME280;11998;55.788;37.572;2023-06-10T04:11:28;99151.91;;;89.96;9.45
23643;BME280;11998;55.788;37.572;2023-06-10T04:12:28;99145.97;;;88.32;9.60
23643;BME280;11998;55.788;37.572;2023-06-10T04:13:28;99162.00;;;91.21;9.34
23643;BME280;11998;55.788;37.572;2023-06-10T04:14:29;99188.91;;;94.12;9.37
23643;BME280;11998;55.788;37.572;2023-06-10T04:15:30;99217.53;;;95.23;9.29
23643;BME280;11998;55.788;37.572;2023-06-10T04:16:33;99217.31;;;96.18;8.97
23643;BME280;11998;55.788;37.572;2023-06-10T04:17:35;99224.06;;;96.69;8.92
23643;BME280;11998;55.788;37.572;2023-06-10T04:18:35;99234.53;;;98.20;8.96
23643;BME280;11998;55.788;37.572;2023-06-10T04:19:36;99236.13;;;98.44;9.16
23643;BME280;11998;55.788;37.572;2023-06-10T04:20:37;99205.69;;;96.14;9.29
23643;BME280;11998;55.788;37.572;2023-06-10T04:21:38;99180.63;;;94.67;9.17
23643;BME280;11998;55.788;37.572;2023-06-10T04:22:38;99169.44;;;94.13;9.46
23643;BME280;11998;55.788;37.572;2023-06-10T04:23:39;99173.88;;;95.53;9.35
23643;BME280;11998;55.788;37.572;2023-06-10T04:24:39;99145.41;;;91.12;9.54
23643;BME280;11998;55.788;37.572;2023-06-10T04:25:40;99142.06;;;92.53;9.23
23643;BME280;11998;55.788;37.572;2023-06-10T04:26:44;99139.03;;;92.36;9.26
23643;BME280;11998;55.788;37.572;2023-06-10T04:28:02;99130.03;;;90.31;9.49
23643;BME280;11998;55.788;37.572;2023-06-10T04:29:03;99163.53;;;94.33;9.31
23643;BME280;11998;55.788;37.572;2023-06-10T04:30:04;99165.00;;;93.26;9.37
23643;BME280;11998;55.788;37.572;2023-06-10T04:31:04;99175.78;;;94.91;9.27
23643;BME280;11998;55.788;37.572;2023-06-10T04:32:05;99188.53;;;97.00;8.94
23643;BME280;11998;55.788;37.572;2023-06-10T04:33:07;99207.94;;;98.18;9.18
23643;BME280;11998;55.788;37.572;2023-06-10T04:34:09;99199.63;;;95.64;8.94
23643;BME280;11998;55.788;37.572;2023-06-10T04:35:12;99211.09;;;98.79;9.18
23643;BME280;11998;55.788;37.572;2023-06-10T04:36:14;99223.19;;;99.02;9.01
23643;BME280;11998;55.788;37.572;2023-06-10T04:37:15;99204.63;;;98.61;8.89
23643;BME280;11998;55.788;37.572;2023-06-10T04:38:15;99213.91;;;100.69;8.67
23643;BME280;11998;55.788;37.572;2023-06-10T04:39:16;99210.00;;;100.80;8.62
23643;BME280;11998;55.788;37.572;2023-06-10T04:40:17;99227.94;;;103.06;8.44
23643;BME280;11998;55.788;37.572;2023-06-10T04:41:18;99216.69;;;102.93;8.61
23643;BME280;11998;55.788;37.572;2023-06-10T04:42:18;99214.66;;;104.09;8.75
23643;BME280;11998;55.788;37.572;2023-06-10T04:43:19;99207.47;;;104.00;8.44
23643;BME280;11998;55.788;37.572;2023-06-10T04:44:19;99215.25;;;104.85;8.77
23643;BME280;11998;55.788;37.572;2023-06-10T04:45:20;99168.47;;;100.57;8.79
23643;BME280;11998;55.788;37.572;2023-06-10T04:46:20;99151.16;;;99.14;9.06
23643;BME280;11998;55.788;37.572;2023-06-10T04:47:21;99143.72;;;100.76;8.94
23643;BME280;11998;55.788;37.572;2023-06-10T04:48:21;99146.75;;;100.49;8.75
23643;BME280;11998;55.788;37.572;2023-06-10T04:49:24;99162.13;;;102.32;8.93
23643;BME280;11998;55.788;37.572;2023-06-10T04:50:24;99129.50;;;100.81;8.65
23643;BME280;11998;55.788;37.572;2023-06-10T04:51:25;99131.81;;;97.32;9.36
23643;BME280;11998;55.788;37.572;2023-06-10T04:52:26;99128.06;;;97.55;9.25
23643;BME280;11998;55.788;37.572;2023-06-10T04:53:27;99101.75;;;96.49;9.31
23643;BME280;11998;55.788;37.572;2023-06-10T04:54:28;99127.78;;;98.19;8.87
23643;BME280;11998;55.788;37.572;2023-06-10T04:55:29;99139.56;;;100.01;8.95
23643;BME280;11998;55.788;37.572;2023-06-10T04:56:30;99169.19;;;102.21;8.53
23643;BME280;11998;55.788;37.572;2023-06-10T04:57:30;99177.66;;;103.43;8.75
23643;BME280;11998;55.788;37.572;2023-06-10T04:58:31;99185.34;;;103.44;8.69
23643;BME280;11998;55.788;37.572;2023-06-10T04:59:31;99198.38;;;106.25;8.43
23643;BME280;11998;55.788;37.572;2023-06-10T05:00:32;99203.44;;;107.61;8.41
23643;BME280;11998;55.788;37.572;2023-06-10T05:01:32;99179.25;;;107.11;8.61
23643;BME280;11998;55.788;37.572;2023-06-10T05:02:33;99193.00;;;108.50;8.64
23643;BME280;11998;55.788;37.572;2023-06-10T05:03:34;99164.84;;;104.44;8.66
23643;BME280;11998;55.788;37.572;2023-06-10T05:04:35;99134.44;;;102.26;8.88
23643;BME280;11998;55.788;37.572;2023-06-10T05:05:36;99119.69;;;101.41;9.10
23643;BME280;11998;55.788;37.572;2023-06-10T05:06:36;99112.47;;;101.19;8.85
23643;BME280;11998;55.788;37.572;2023-06-10T05:07:37;99114.28;;;100.95;9.12
23643;BME280;11998;55.788;37.572;2023-06-10T05:08:38;99126.00;;;101.77;8.88
23643;BME280;11998;55.788;37.572;2023-06-10T05:09:39;99137.56;;;102.28;8.87
23643;BME280;11998;55.788;37.572;2023-06-10T05:10:39;99140.00;;;103.54;8.82
23643;BME280;11998;55.788;37.572;2023-06-10T05:11:40;99137.09;;;103.38;8.42
23643;BME280;11998;55.788;37.572;2023-06-10T05:12:41;99115.75;;;100.94;8.82
23643;BME280;11998;55.788;37.572;2023-06-10T05:13:42;99136.09;;;102.63;8.57
23643;BME280;11998;55.788;37.572;2023-06-10T05:14:42;99138.97;;;101.93;8.87
23643;BME280;11998;55.788;37.572;2023-06-10T05:15:45;99125.34;;;101.63;8.93
23643;BME280;11998;55.788;37.572;2023-06-10T05:16:48;99135.94;;;103.30;8.40
23643;BME280;11998;55.788;37.572;2023-06-10T05:17:48;99155.13;;;103.32;8.61
23643;BME280;11998;55.788;37.572;2023-06-10T05:18:49;99166.94;;;105.97;8.46
23643;BME280;11998;55.788;37.572;2023-06-10T05:19:51;99163.50;;;105.84;8.49
23643;BME280;11998;55.788;37.572;2023-06-10T05:20:51;99176.75;;;106.19;8.44
23643;BME280;11998;55.788;37.572;2023-06-10T05:21:54;99162.22;;;105.94;8.79
23643;BME280;11998;55.788;37.572;2023-06-10T05:22:54;99168.19;;;106.41;8.73
23643;BME280;11998;55.788;37.572;2023-06-10T05:23:55;99132.91;;;100.04;9.22
23643;BME280;11998;55.788;37.572;2023-06-10T05:24:55;99122.03;;;101.27;8.71
23643;BME280;11998;55.788;37.572;2023-06-10T05:25:57;99100.78;;;100.27;8.69